sensor_id;sensor_type;location;lat;lon;timestamp;pressure;altitude;pressure_sealevel;temperature;humidity
10460;BME280;54412;51.206;6.888;2023-02-28T00:00:13;102261.31;;;3.46;57.60
10460;BME280;54412;51.206;6.888;2023-02-28T00:02:42;102264.06;;;3.73;56.68
10460;BME280;54412;51.206;6.888;2023-02-28T00:05:10;102266.66;;;3.67;56.67
10460;BME280;54412;51.206;6.888;2023-02-28T00:07:37;102263.09;;;3.48;56.71
10460;BME280;54412;51.206;6.888;2023-02-28T00:10:05;102259.53;;;3.33;57.46
10460;BME280;54412;51.206;6.888;2023-02-28T00:12:34;102256.13;;;3.46;57.26
10460;BME280;54412;51.206;6.888;2023-02-28T00:15:00;102257.84;;;3.41;57.46
10460;BME280;54412;51.206;6.888;2023-02-28T00:17:25;102257.84;;;3.41;57.21
10460;BME280;54412;51.206;6.888;2023-02-28T00:19:51;102257.06;;;3.61;56.65
10460;BME280;54412;51.206;6.888;2023-02-28T00:22:20;102262.25;;;3.52;56.81
10460;BME280;54412;51.206;6.888;2023-02-28T00:24:46;102259.47;;;3.22;57.35
10460;BME280;54412;51.206;6.888;2023-02-28T00:27:14;102258.56;;;3.18;57.56
10460;BME280;54412;51.206;6.888;2023-02-28T00:29:40;102260.44;;;3.39;57.36
10460;BME280;54412;51.206;6.888;2023-02-28T00:32:06;102257.06;;;3.60;57.15
10460;BME280;54412;51.206;6.888;2023-02-28T00:34:32;102268.34;;;3.59;57.15
10460;BME280;54412;51.206;6.888;2023-02-28T00:37:05;102264.72;;;3.24;57.82
10460;BME280;54412;51.206;6.888;2023-02-28T00:39:32;102266.53;;;3.38;57.29
10460;BME280;54412;51.206;6.888;2023-02-28T00:41:58;102270.97;;;3.56;56.59
10460;BME280;54412;51.206;6.888;2023-02-28T00:44:24;102263.13;;;3.57;57.18
10460;BME280;54412;51.206;6.888;2023-02-28T00:46:50;102268.41;;;3.65;57.16
10460;BME280;54412;51.206;6.888;2023-02-28T00:49:17;102264.06;;;3.67;57.15
10460;BME280;54412;51.206;6.888;2023-02-28T00:51:43;102261.41;;;3.61;57.26
10460;BME280;54412;51.206;6.888;2023-02-28T00:54:08;102255.44;;;3.93;56.19
10460;BME280;54412;51.206;6.888;2023-02-28T00:56:34;102251.94;;;3.93;56.40
10460;BME280;54412;51.206;6.888;2023-02-28T00:59:00;102258.81;;;3.65;56.67
10460;BME280;54412;51.206;6.888;2023-02-28T01:01:25;102249.31;;;3.81;56.42
10460;BME280;54412;51.206;6.888;2023-02-28T01:03:51;102252.81;;;3.83;56.78
10460;BME280;54412;51.206;6.888;2023-02-28T01:06:17;102260.63;;;3.90;56.35
10460;BME280;54412;51.206;6.888;2023-02-28T01:08:42;102249.28;;;3.70;56.53
10460;BME280;54412;51.206;6.888;2023-02-28T01:11:14;102257.88;;;3.53;57.13
10460;BME280;54412;51.206;6.888;2023-02-28T01:13:41;102258.81;;;3.61;57.68
10460;BME280;54412;51.206;6.888;2023-02-28T01:16:07;102257.88;;;3.48;57.56
10460;BME280;54412;51.206;6.888;2023-02-28T01:18:33;102257.91;;;3.57;57.33
10460;BME280;54412;51.206;6.888;2023-02-28T01:21:08;102257.84;;;3.42;57.50
10460;BME280;54412;51.206;6.888;2023-02-28T01:23:35;102258.66;;;3.35;57.95
10460;BME280;54412;51.206;6.888;2023-02-28T01:26:06;102256.16;;;3.52;57.26
10460;BME280;54412;51.206;6.888;2023-02-28T01:28:33;102256.19;;;3.61;57.45
10460;BME280;54412;51.206;6.888;2023-02-28T01:30:59;102260.31;;;3.16;58.14
10460;BME280;54412;51.206;6.888;2023-02-28T01:33:25;102255.16;;;3.30;58.03
10460;BME280;54412;51.206;6.888;2023-02-28T01:35:59;102256.00;;;3.20;58.36
10460;BME280;54412;51.206;6.888;2023-02-28T01:38:24;102256.84;;;3.20;58.10
10460;BME280;54412;51.206;6.888;2023-02-28T01:40:50;102252.56;;;3.30;57.95
10460;BME280;54412;51.206;6.888;2023-02-28T01:43:26;102261.19;;;3.18;58.48
10460;BME280;54412;51.206;6.888;2023-02-28T01:45:53;102262.94;;;3.18;58.47
10460;BME280;54412;51.206;6.888;2023-02-28T01:48:30;102256.84;;;3.19;58.09
10460;BME280;54412;51.206;6.888;2023-02-28T01:51:05;102258.50;;;3.09;58.90
10460;BME280;54412;51.206;6.888;2023-02-28T01:53:41;102252.41;;;3.04;58.89
10460;BME280;54412;51.206;6.888;2023-02-28T01:56:12;102255.13;;;3.19;58.49
10460;BME280;54412;51.206;6.888;2023-02-28T01:58:39;102250.78;;;3.25;58.55
10460;BME280;54412;51.206;6.888;2023-02-28T02:01:05;102248.97;;;3.08;58.83
10460;BME280;54412;51.206;6.888;2023-02-28T02:03:31;102250.69;;;3.06;58.64
10460;BME280;54412;51.206;6.888;2023-02-28T02:05:57;102246.47;;;3.28;58.18
10460;BME280;54412;51.206;6.888;2023-02-28T02:08:26;102238.47;;;2.98;59.12
10460;BME280;54412;51.206;6.888;2023-02-28T02:11:01;102232.50;;;3.18;58.76
10460;BME280;54412;51.206;6.888;2023-02-28T02:16:34;102235.00;;;2.99;58.62
10460;BME280;54412;51.206;6.888;2023-02-28T02:25:32;102230.59;;;2.90;58.88
10460;BME280;54412;51.206;6.888;2023-02-28T02:28:35;102224.50;;;2.90;58.95
10460;BME280;54412;51.206;6.888;2023-02-28T02:31:26;102228.69;;;2.67;59.19
10460;BME280;54412;51.206;6.888;2023-02-28T02:34:24;102220.03;;;2.72;59.46
10460;BME280;54412;51.206;6.888;2023-02-28T02:37:14;102222.00;;;3.08;58.78
10460;BME280;54412;51.206;6.888;2023-02-28T02:39:53;102222.66;;;2.71;59.66
10460;BME280;54412;51.206;6.888;2023-02-28T02:45:25;102214.91;;;2.84;59.33
10460;BME280;54412;51.206;6.888;2023-02-28T02:47:57;102214.03;;;2.81;59.64
10460;BME280;54412;51.206;6.888;2023-02-28T02:50:31;102212.28;;;2.77;59.46
10460;BME280;54412;51.206;6.888;2023-02-28T02:53:02;102217.50;;;2.78;59.26
10460;BME280;54412;51.206;6.888;2023-02-28T02:55:31;102212.31;;;2.83;59.48
10460;BME280;54412;51.206;6.888;2023-02-28T02:58:04;102215.75;;;2.79;59.45
10460;BME280;54412;51.206;6.888;2023-02-28T03:00:46;102214.97;;;2.89;59.41
10460;BME280;54412;51.206;6.888;2023-02-28T03:03:16;102213.97;;;2.72;59.60
10460;BME280;54412;51.206;6.888;2023-02-28T03:05:49;102220.94;;;2.73;59.90
10460;BME280;54412;51.206;6.888;2023-02-28T03:08:16;102220.03;;;2.71;60.15
10460;BME280;54412;51.206;6.888;2023-02-28T03:10:49;102214.78;;;2.66;59.80
10460;BME280;54412;51.206;6.888;2023-02-28T03:22:38;102216.69;;;2.87;60.05
10460;BME280;54412;51.206;6.888;2023-02-28T03:28:15;102214.81;;;2.68;59.69
10460;BME280;54412;51.206;6.888;2023-02-28T03:31:19;102212.34;;;2.86;59.32
10460;BME280;54412;51.206;6.888;2023-02-28T03:34:09;102211.28;;;2.60;60.04
10460;BME280;54412;51.206;6.888;2023-02-28T03:36:41;102206.19;;;2.79;59.24
10460;BME280;54412;51.206;6.888;2023-02-28T03:39:43;102204.47;;;2.78;59.38
10460;BME280;54412;51.206;6.888;2023-02-28T03:42:25;102206.97;;;2.65;59.39
10460;BME280;54412;51.206;6.888;2023-02-28T03:45:00;102211.41;;;2.75;59.41
10460;BME280;54412;51.206;6.888;2023-02-28T03:47:40;102201.03;;;2.85;59.11
10460;BME280;54412;51.206;6.888;2023-02-28T03:50:19;102208.91;;;2.91;58.45
10460;BME280;54412;51.206;6.888;2023-02-28T03:53:04;102210.50;;;2.73;58.90
10460;BME280;54412;51.206;6.888;2023-02-28T03:55:42;102216.66;;;2.82;58.16
10460;BME280;54412;51.206;6.888;2023-02-28T03:58:37;102211.34;;;2.69;58.23
10460;BME280;54412;51.206;6.888;2023-02-28T04:01:23;102223.53;;;2.71;57.95
10460;BME280;54412;51.206;6.888;2023-02-28T04:03:50;102220.00;;;2.65;58.48
10460;BME280;54412;51.206;6.888;2023-02-28T04:06:20;102225.09;;;2.50;58.57
10460;BME280;54412;51.206;6.888;2023-02-28T04:08:47;102218.25;;;2.64;58.41
10460;BME280;54412;51.206;6.888;2023-02-28T04:14:04;102220.09;;;2.77;57.70
10460;BME280;54412;51.206;6.888;2023-02-28T04:16:31;102230.31;;;2.53;58.07
10460;BME280;54412;51.206;6.888;2023-02-28T04:18:57;102221.81;;;2.76;58.18
10460;BME280;54412;51.206;6.888;2023-02-28T04:21:33;102225.31;;;2.78;57.13
10460;BME280;54412;51.206;6.888;2023-02-28T04:23:59;102220.91;;;2.70;57.64
10460;BME280;54412;51.206;6.888;2023-02-28T04:26:34;102233.88;;;2.64;57.50
10460;BME280;54412;51.206;6.888;2023-02-28T04:29:02;102227.06;;;2.81;57.21
10460;BME280;54412;51.206;6.888;2023-02-28T04:31:28;102234.84;;;2.73;56.82
10460;BME280;54412;51.206;6.888;2023-02-28T04:33:53;102228.81;;;2.85;56.40
10460;BME280;54412;51.206;6.888;2023-02-28T04:36:19;102235.69;;;2.72;56.58
10460;BME280;54412;51.206;6.888;2023-02-28T04:38:46;102228.75;;;2.76;56.15
10460;BME280;54412;51.206;6.888;2023-02-28T04:41:13;102246.03;;;2.66;56.46
10460;BME280;54412;51.206;6.888;2023-02-28T04:43:38;102246.91;;;2.65;56.21
10460;BME280;54412;51.206;6.888;2023-02-28T04:46:05;102234.78;;;2.70;56.40
10460;BME280;54412;51.206;6.888;2023-02-28T04:48:35;102233.13;;;2.81;55.93
10460;BME280;54412;51.206;6.888;2023-02-28T04:51:08;102239.09;;;2.65;55.59
10460;BME280;54412;51.206;6.888;2023-02-28T04:53:36;102240.03;;;2.73;55.62
10460;BME280;54412;51.206;6.888;2023-02-28T04:56:03;102241.69;;;2.64;55.36
10460;BME280;54412;51.206;6.888;2023-02-28T04:58:29;102237.47;;;2.78;54.79
10460;BME280;54412;51.206;6.888;2023-02-28T05:01:06;102244.50;;;2.91;54.39
10460;BME280;54412;51.206;6.888;2023-02-28T05:03:39;102245.28;;;2.79;54.00
10460;BME280;54412;51.206;6.888;2023-02-28T05:06:09;102242.59;;;2.67;54.70
10460;BME280;54412;51.206;6.888;2023-02-28T05:08:35;102251.38;;;2.78;54.72
10460;BME280;54412;51.206;6.888;2023-02-28T05:11:02;102251.25;;;2.65;54.38
10460;BME280;54412;51.206;6.888;2023-02-28T05:13:28;102253.09;;;2.75;54.64
10460;BME280;54412;51.206;6.888;2023-02-28T05:15:54;102252.22;;;2.77;54.02
10460;BME280;54412;51.206;6.888;2023-02-28T05:18:20;102251.94;;;2.43;54.53
10460;BME280;54412;51.206;6.888;2023-02-28T05:20:46;102244.25;;;2.56;54.34
10460;BME280;54412;51.206;6.888;2023-02-28T05:23:13;102251.25;;;2.63;54.15
10460;BME280;54412;51.206;6.888;2023-02-28T05:25:40;102247.66;;;2.52;54.78
10460;BME280;54412;51.206;6.888;2023-02-28T05:28:07;102245.84;;;2.42;55.12
10460;BME280;54412;51.206;6.888;2023-02-28T05:30:33;102251.22;;;2.60;54.38
10460;BME280;54412;51.206;6.888;2023-02-28T05:32:59;102248.63;;;2.59;54.62
10460;BME280;54412;51.206;6.888;2023-02-28T05:35:25;102249.25;;;2.34;55.26
10460;BME280;54412;51.206;6.888;2023-02-28T05:37:51;102250.91;;;2.24;55.59
10460;BME280;54412;51.206;6.888;2023-02-28T05:40:18;102251.25;;;2.63;54.26
10460;BME280;54412;51.206;6.888;2023-02-28T05:42:46;102258.06;;;2.46;54.76
10460;BME280;54412;51.206;6.888;2023-02-28T05:45:12;102260.66;;;2.46;54.68
10460;BME280;54412;51.206;6.888;2023-02-28T05:47:38;102257.25;;;2.56;54.09
10460;BME280;54412;51.206;6.888;2023-02-28T05:50:05;102259.78;;;2.46;53.85
10460;BME280;54412;51.206;6.888;2023-02-28T05:52:32;102264.91;;;2.37;54.60
10460;BME280;54412;51.206;6.888;2023-02-28T05:54:58;102258.78;;;2.33;55.25
10460;BME280;54412;51.206;6.888;2023-02-28T05:57:24;102264.84;;;2.31;54.73
10460;BME280;54412;51.206;6.888;2023-02-28T05:59:49;102265.00;;;2.49;54.83
10460;BME280;54412;51.206;6.888;2023-02-28T06:02:17;102267.50;;;2.35;54.45
10460;BME280;54412;51.206;6.888;2023-02-28T06:04:44;102274.44;;;2.35;54.43
10460;BME280;54412;51.206;6.888;2023-02-28T06:07:10;102273.53;;;2.31;54.32
10460;BME280;54412;51.206;6.888;2023-02-28T06:09:36;102280.63;;;2.47;52.89
10460;BME280;54412;51.206;6.888;2023-02-28T06:12:05;102282.34;;;2.45;53.51
10460;BME280;54412;51.206;6.888;2023-02-28T06:14:34;102284.78;;;2.29;53.23
10460;BME280;54412;51.206;6.888;2023-02-28T06:17:01;102288.41;;;2.43;53.59
10460;BME280;54412;51.206;6.888;2023-02-28T06:19:27;102284.38;;;2.79;52.94
10460;BME280;54412;51.206;6.888;2023-02-28T06:21:55;102285.25;;;2.80;52.87
10460;BME280;54412;51.206;6.888;2023-02-28T06:24:24;102286.97;;;2.79;53.04
10460;BME280;54412;51.206;6.888;2023-02-28T06:26:53;102295.00;;;3.05;52.42
10460;BME280;54412;51.206;6.888;2023-02-28T06:29:19;102287.69;;;2.62;53.26
10460;BME280;54412;51.206;6.888;2023-02-28T06:31:45;102291.84;;;2.42;53.92
10460;BME280;54412;51.206;6.888;2023-02-28T06:34:12;102290.94;;;2.37;54.14
10460;BME280;54412;51.206;6.888;2023-02-28T06:36:39;102303.06;;;2.35;54.39
10460;BME280;54412;51.206;6.888;2023-02-28T06:39:07;102308.25;;;2.32;54.25
10460;BME280;54412;51.206;6.888;2023-02-28T06:41:33;102304.00;;;2.41;54.15
10460;BME280;54412;51.206;6.888;2023-02-28T06:44:13;102310.06;;;2.40;53.72
10460;BME280;54412;51.206;6.888;2023-02-28T06:46:42;102306.41;;;2.22;54.02
10460;BME280;54412;51.206;6.888;2023-02-28T06:49:09;102316.09;;;2.35;53.49
10460;BME280;54412;51.206;6.888;2023-02-28T06:51:39;102307.56;;;2.51;53.12
10460;BME280;54412;51.206;6.888;2023-02-28T06:54:05;102314.75;;;2.79;53.54
10460;BME280;54412;51.206;6.888;2023-02-28T06:56:35;102322.38;;;2.56;52.32
10460;BME280;54412;51.206;6.888;2023-02-28T06:59:01;102316.16;;;2.39;52.79
10460;BME280;54412;51.206;6.888;2023-02-28T07:01:27;102326.59;;;2.42;53.01
10460;BME280;54412;51.206;6.888;2023-02-28T07:03:54;102323.19;;;2.51;51.83
10460;BME280;54412;51.206;6.888;2023-02-28T07:06:24;102321.44;;;2.48;51.93
10460;BME280;54412;51.206;6.888;2023-02-28T07:08:52;102331.16;;;2.66;52.32
10460;BME280;54412;51.206;6.888;2023-02-28T07:11:20;102326.94;;;2.78;51.59
10460;BME280;54412;51.206;6.888;2023-02-28T07:13:48;102326.94;;;2.78;51.42
10460;BME280;54412;51.206;6.888;2023-02-28T07:16:14;102330.34;;;2.71;51.44
10460;BME280;54412;51.206;6.888;2023-02-28T07:18:40;102331.13;;;2.63;51.52
10460;BME280;54412;51.206;6.888;2023-02-28T07:21:09;102328.59;;;2.72;51.27
10460;BME280;54412;51.206;6.888;2023-02-28T07:23:36;102332.09;;;2.75;50.58
10460;BME280;54412;51.206;6.888;2023-02-28T07:26:04;102326.13;;;2.85;50.35
10460;BME280;54412;51.206;6.888;2023-02-28T07:28:30;102340.06;;;2.93;49.76
10460;BME280;54412;51.206;6.888;2023-02-28T07:30:56;102336.53;;;2.82;50.11
10460;BME280;54412;51.206;6.888;2023-02-28T07:33:22;102341.94;;;3.09;48.91
10460;BME280;54412;51.206;6.888;2023-02-28T07:35:49;102341.16;;;3.19;48.22
10460;BME280;54412;51.206;6.888;2023-02-28T07:38:15;102327.16;;;3.05;48.18
10460;BME280;54412;51.206;6.888;2023-02-28T07:40:41;102339.38;;;3.14;49.21
10460;BME280;54412;51.206;6.888;2023-02-28T07:43:07;102338.63;;;3.29;48.49
10460;BME280;54412;51.206;6.888;2023-02-28T07:45:32;102347.41;;;3.41;47.38
10460;BME280;54412;51.206;6.888;2023-02-28T07:48:00;102344.16;;;3.84;46.69
10460;BME280;54412;51.206;6.888;2023-02-28T07:50:26;102347.56;;;3.68;46.90
10460;BME280;54412;51.206;6.888;2023-02-28T07:52:57;102353.00;;;4.13;44.21
10460;BME280;54412;51.206;6.888;2023-02-28T07:55:23;102346.94;;;4.36;43.67
10460;BME280;54412;51.206;6.888;2023-02-28T07:57:49;102347.81;;;4.32;44.68
10460;BME280;54412;51.206;6.888;2023-02-28T08:00:15;102349.63;;;4.66;43.32
10460;BME280;54412;51.206;6.888;2023-02-28T08:02:41;102352.25;;;4.81;42.83
10460;BME280;54412;51.206;6.888;2023-02-28T08:05:07;102349.66;;;4.90;42.06
10460;BME280;54412;51.206;6.888;2023-02-28T08:07:33;102349.66;;;4.99;41.80
10460;BME280;54412;51.206;6.888;2023-02-28T08:10:00;102348.78;;;5.18;41.50
10460;BME280;54412;51.206;6.888;2023-02-28T08:12:25;102347.00;;;5.27;40.89
10460;BME280;54412;51.206;6.888;2023-02-28T08:14:51;102355.69;;;5.49;40.41
10460;BME280;54412;51.206;6.888;2023-02-28T08:17:17;102349.63;;;5.50;39.47
10460;BME280;54412;51.206;6.888;2023-02-28T08:19:46;102354.75;;;5.82;39.65
10460;BME280;54412;51.206;6.888;2023-02-28T08:22:12;102353.75;;;6.17;38.98
10460;BME280;54412;51.206;6.888;2023-02-28T08:24:37;102346.75;;;6.27;38.58
10460;BME280;54412;51.206;6.888;2023-02-28T08:27:04;102349.19;;;6.60;37.44
10460;BME280;54412;51.206;6.888;2023-02-28T08:29:30;102348.47;;;6.32;37.26
10460;BME280;54412;51.206;6.888;2023-02-28T08:31:55;102358.84;;;6.51;36.57
10460;BME280;54412;51.206;6.888;2023-02-28T08:34:22;102348.22;;;6.70;36.19
10460;BME280;54412;51.206;6.888;2023-02-28T08:36:48;102349.84;;;6.88;36.52
10460;BME280;54412;51.206;6.888;2023-02-28T08:39:14;102348.06;;;6.90;36.53
10460;BME280;54412;51.206;6.888;2023-02-28T08:41:39;102358.44;;;7.06;37.19
10460;BME280;54412;51.206;6.888;2023-02-28T08:44:05;102351.06;;;7.46;36.32
10460;BME280;54412;51.206;6.888;2023-02-28T08:46:31;102356.59;;;7.99;36.07
10460;BME280;54412;51.206;6.888;2023-02-28T08:48:57;102353.19;;;7.93;35.84
10460;BME280;54412;51.206;6.888;2023-02-28T08:51:28;102361.91;;;7.93;34.10
10460;BME280;54412;51.206;6.888;2023-02-28T08:53:56;102349.38;;;8.16;34.22
10460;BME280;54412;51.206;6.888;2023-02-28T08:56:23;102351.34;;;7.98;34.15
10460;BME280;54412;51.206;6.888;2023-02-28T08:58:50;102353.72;;;8.19;33.14
10460;BME280;54412;51.206;6.888;2023-02-28T09:01:23;102350.09;;;8.30;33.48
10460;BME280;54412;51.206;6.888;2023-02-28T09:03:51;102349.38;;;8.16;34.36
10460;BME280;54412;51.206;6.888;2023-02-28T09:06:19;102349.88;;;8.45;33.15
10460;BME280;54412;51.206;6.888;2023-02-28T09:08:45;102349.31;;;8.25;32.90
10460;BME280;54412;51.206;6.888;2023-02-28T09:11:11;102352.38;;;7.86;33.33
10460;BME280;54412;51.206;6.888;2023-02-28T09:13:38;102352.44;;;7.82;33.25
10460;BME280;54412;51.206;6.888;2023-02-28T09:16:08;102339.72;;;8.18;32.84
10460;BME280;54412;51.206;6.888;2023-02-28T09:18:37;102337.56;;;8.51;32.77
10460;BME280;54412;51.206;6.888;2023-02-28T09:21:06;102327.50;;;8.77;31.94
10460;BME280;54412;51.206;6.888;2023-02-28T09:23:32;102328.41;;;8.76;32.25
10460;BME280;54412;51.206;6.888;2023-02-28T09:25:58;102331.22;;;8.62;31.97
10460;BME280;54412;51.206;6.888;2023-02-28T09:28:24;102329.56;;;8.55;33.25
10460;BME280;54412;51.206;6.888;2023-02-28T09:30:53;102330.50;;;9.07;32.99
10460;BME280;54412;51.206;6.888;2023-02-28T09:33:20;102328.91;;;9.92;33.47
10460;BME280;54412;51.206;6.888;2023-02-28T09:35:48;102330.56;;;10.38;32.65
10460;BME280;54412;51.206;6.888;2023-02-28T09:38:13;102323.50;;;9.55;31.25
10460;BME280;54412;51.206;6.888;2023-02-28T09:41:09;102322.19;;;9.31;30.85
10460;BME280;54412;51.206;6.888;2023-02-28T09:43:41;102333.09;;;9.09;33.04
10460;BME280;54412;51.206;6.888;2023-02-28T09:46:31;102324.84;;;9.30;31.16
10460;BME280;54412;51.206;6.888;2023-02-28T09:49:02;102320.44;;;9.76;30.49
10460;BME280;54412;51.206;6.888;2023-02-28T09:54:22;102316.28;;;10.06;35.91
10460;BME280;54412;51.206;6.888;2023-02-28T09:56:54;102315.72;;;9.92;33.55
10460;BME280;54412;51.206;6.888;2023-02-28T10:00:13;102313.97;;;9.92;31.29
10460;BME280;54412;51.206;6.888;2023-02-28T10:03:03;102325.88;;;10.11;32.51
10460;BME280;54412;51.206;6.888;2023-02-28T10:05:39;102327.34;;;8.86;32.48
10460;BME280;54412;51.206;6.888;2023-02-28T10:08:16;102328.44;;;8.73;32.62
10460;BME280;54412;51.206;6.888;2023-02-28T10:10:58;102325.41;;;9.47;30.88
10460;BME280;54412;51.206;6.888;2023-02-28T10:16:35;102328.88;;;8.44;30.48
10460;BME280;54412;51.206;6.888;2023-02-28T10:22:03;102325.09;;;9.15;31.88
10460;BME280;54412;51.206;6.888;2023-02-28T10:24:32;102339.13;;;7.97;32.05
10460;BME280;54412;51.206;6.888;2023-02-28T10:27:13;102317.75;;;8.24;32.30
10460;BME280;54412;51.206;6.888;2023-02-28T10:29:44;102332.72;;;8.16;30.96
10460;BME280;54412;51.206;6.888;2023-02-28T10:32:17;102301.84;;;8.89;31.02
10460;BME280;54412;51.206;6.888;2023-02-28T10:34:44;102303.16;;;9.14;30.42
10460;BME280;54412;51.206;6.888;2023-02-28T10:37:12;102308.06;;;9.34;30.85
10460;BME280;54412;51.206;6.888;2023-02-28T10:39:41;102311.69;;;9.28;29.89
10460;BME280;54412;51.206;6.888;2023-02-28T10:42:25;102311.84;;;8.68;30.39
10460;BME280;54412;51.206;6.888;2023-02-28T10:45:16;102297.28;;;9.00;31.03
10460;BME280;54412;51.206;6.888;2023-02-28T10:56:12;102315.44;;;9.15;31.42
10460;BME280;54412;51.206;6.888;2023-02-28T10:59:02;102292.38;;;9.74;30.96
10460;BME280;54412;51.206;6.888;2023-02-28T11:01:46;102291.16;;;10.32;30.36
10460;BME280;54412;51.206;6.888;2023-02-28T11:04:34;102292.19;;;10.62;30.16
10460;BME280;54412;51.206;6.888;2023-02-28T11:07:20;102291.00;;;10.75;29.66
10460;BME280;54412;51.206;6.888;2023-02-28T11:09:50;102299.53;;;10.85;29.40
10460;BME280;54412;51.206;6.888;2023-02-28T11:12:40;102298.91;;;9.97;29.57
10460;BME280;54412;51.206;6.888;2023-02-28T11:15:34;102292.53;;;10.48;29.04
10460;BME280;54412;51.206;6.888;2023-02-28T11:20:39;102307.56;;;9.14;30.01
10460;BME280;54412;51.206;6.888;2023-02-28T11:23:13;102305.03;;;8.56;31.75
10460;BME280;54412;51.206;6.888;2023-02-28T11:25:40;102302.91;;;8.20;32.28
10460;BME280;54412;51.206;6.888;2023-02-28T11:28:36;102300.25;;;8.21;32.32
10460;BME280;54412;51.206;6.888;2023-02-28T11:33:54;102313.28;;;7.58;33.38
10460;BME280;54412;51.206;6.888;2023-02-28T11:36:26;102299.13;;;7.72;33.83
10460;BME280;54412;51.206;6.888;2023-02-28T11:39:04;102297.91;;;7.99;34.24
10460;BME280;54412;51.206;6.888;2023-02-28T11:44:56;102294.41;;;8.62;33.08
10460;BME280;54412;51.206;6.888;2023-02-28T11:47:42;102289.13;;;9.61;30.97
10460;BME280;54412;51.206;6.888;2023-02-28T11:52:56;102286.88;;;9.86;30.13
10460;BME280;54412;51.206;6.888;2023-02-28T11:55:42;102289.72;;;10.16;30.11
10460;BME280;54412;51.206;6.888;2023-02-28T11:58:41;102279.84;;;10.26;29.29
10460;BME280;54412;51.206;6.888;2023-02-28T12:02:18;102282.44;;;9.86;29.35
10460;BME280;54412;51.206;6.888;2023-02-28T12:05:01;102278.97;;;10.25;29.51
10460;BME280;54412;51.206;6.888;2023-02-28T12:08:02;102272.78;;;10.65;29.28
10460;BME280;54412;51.206;6.888;2023-02-28T12:10:42;102265.56;;;11.71;28.95
10460;BME280;54412;51.206;6.888;2023-02-28T12:13:29;102265.00;;;11.58;27.97
10460;BME280;54412;51.206;6.888;2023-02-28T12:18:51;102269.78;;;12.07;28.30
10460;BME280;54412;51.206;6.888;2023-02-28T12:25:18;102256.22;;;11.57;28.63
10460;BME280;54412;51.206;6.888;2023-02-28T12:27:48;102246.75;;;12.10;27.26
10460;BME280;54412;51.206;6.888;2023-02-28T12:30:35;102237.44;;;11.97;27.71
10460;BME280;54412;51.206;6.888;2023-02-28T12:33:13;102233.78;;;12.01;27.33
10460;BME280;54412;51.206;6.888;2023-02-28T12:35:59;102229.75;;;12.17;27.76
10460;BME280;54412;51.206;6.888;2023-02-28T12:38:37;102236.16;;;11.81;28.93
10460;BME280;54412;51.206;6.888;2023-02-28T12:41:19;102225.25;;;11.92;28.68
10460;BME280;54412;51.206;6.888;2023-02-28T12:44:02;102229.69;;;11.60;28.38
10460;BME280;54412;51.206;6.888;2023-02-28T12:46:42;102214.69;;;11.92;28.38
10460;BME280;54412;51.206;6.888;2023-02-28T12:49:27;102206.03;;;12.42;28.28
10460;BME280;54412;51.206;6.888;2023-02-28T12:51:59;102207.19;;;12.06;28.16
10460;BME280;54412;51.206;6.888;2023-02-28T12:55:00;102211.44;;;11.82;28.57
10460;BME280;54412;51.206;6.888;2023-02-28T12:58:01;102198.97;;;12.15;28.57
10460;BME280;54412;51.206;6.888;2023-02-28T13:00:46;102181.03;;;12.77;27.38
10460;BME280;54412;51.206;6.888;2023-02-28T13:06:33;102186.78;;;12.63;27.65
10460;BME280;54412;51.206;6.888;2023-02-28T13:09:14;102175.19;;;13.41;27.08
10460;BME280;54412;51.206;6.888;2023-02-28T13:11:50;102172.63;;;12.89;26.88
10460;BME280;54412;51.206;6.888;2023-02-28T13:14:38;102179.91;;;13.08;25.80
10460;BME280;54412;51.206;6.888;2023-02-28T13:17:12;102168.78;;;12.99;26.66
10460;BME280;54412;51.206;6.888;2023-02-28T13:22:37;102169.84;;;12.42;27.51
10460;BME280;54412;51.206;6.888;2023-02-28T13:31:14;102161.97;;;12.41;27.96
10460;BME280;54412;51.206;6.888;2023-02-28T13:36:30;102159.66;;;12.81;27.41
10460;BME280;54412;51.206;6.888;2023-02-28T13:47:31;102151.78;;;11.74;28.68
10460;BME280;54412;51.206;6.888;2023-02-28T13:50:38;102149.53;;;12.17;28.30
10460;BME280;54412;51.206;6.888;2023-02-28T13:56:19;102150.88;;;12.30;28.35
10460;BME280;54412;51.206;6.888;2023-02-28T13:59:26;102144.34;;;12.14;29.03
10460;BME280;54412;51.206;6.888;2023-02-28T14:02:27;102153.41;;;12.33;29.09
10460;BME280;54412;51.206;6.888;2023-02-28T14:05:06;102139.56;;;12.76;28.20
10460;BME280;54412;51.206;6.888;2023-02-28T14:07:50;102138.63;;;13.03;28.39
10460;BME280;54412;51.206;6.888;2023-02-28T14:10:27;102132.16;;;12.85;27.25
10460;BME280;54412;51.206;6.888;2023-02-28T14:16:02;102129.47;;;12.62;28.30
10460;BME280;54412;51.206;6.888;2023-02-28T14:18:41;102135.75;;;12.33;28.54
10460;BME280;54412;51.206;6.888;2023-02-28T14:21:31;102130.03;;;12.45;29.14
10460;BME280;54412;51.206;6.888;2023-02-28T14:36:36;102118.81;;;12.39;28.73
10460;BME280;54412;51.206;6.888;2023-02-28T14:39:22;102120.00;;;11.46;29.29
10460;BME280;54412;51.206;6.888;2023-02-28T14:41:49;102124.22;;;11.24;29.92
10460;BME280;54412;51.206;6.888;2023-02-28T14:44:24;102119.44;;;11.36;30.99
10460;BME280;54412;51.206;6.888;2023-02-28T14:49:34;102120.00;;;11.47;29.70
10460;BME280;54412;51.206;6.888;2023-02-28T14:54:37;102120.53;;;10.99;31.29
10460;BME280;54412;51.206;6.888;2023-02-28T14:57:04;102104.81;;;11.25;31.01
10460;BME280;54412;51.206;6.888;2023-02-28T14:59:33;102120.03;;;11.15;31.32
10460;BME280;54412;51.206;6.888;2023-02-28T15:02:22;102113.72;;;10.92;31.80
10460;BME280;54412;51.206;6.888;2023-02-28T15:07:36;102118.22;;;10.88;31.21
10460;BME280;54412;51.206;6.888;2023-02-28T15:10:25;102106.06;;;10.81;32.18
10460;BME280;54412;51.206;6.888;2023-02-28T15:12:54;102105.28;;;11.08;31.76
10460;BME280;54412;51.206;6.888;2023-02-28T15:15:57;102106.69;;;10.59;32.37
10460;BME280;54412;51.206;6.888;2023-02-28T15:21:33;102109.47;;;10.54;32.81